Weather at Munich Airport

Public forecast

Using degrees Celsius for public forecast. Weather courtesy of forecast.io.

Current aviation weather report (METAR) for Munich Airport

Retrieved 2021/07/29 08:50 UTC (32 minutes ago):

EDDM 290850Z 26006KT 230V300 9999 FEW030 21/15 Q1017 NOSIG

Aviation forecast (TAF) for Munich Airport

Retrieved 2021/07/29 06:27 UTC (3 hours ago):

TAF EDDM 290500Z 2906/3012 VRB02KT 9999 FEW040 BECMG 2906/2908 25007KT BECMG 2918/2920 VRB02KT BECMG 3007/3009 24005KT